sensor_id;sensor_type;location;lat;lon;timestamp;temperature;humidity
25360;DHT22;13311;51.386;0.016;2023-04-06T00:03:42;12.30;99.90
25360;DHT22;13311;51.386;0.016;2023-04-06T00:08:43;12.30;99.90
25360;DHT22;13311;51.386;0.016;2023-04-06T00:13:45;12.40;99.90
25360;DHT22;13311;51.386;0.016;2023-04-06T00:18:45;12.40;99.90
25360;DHT22;13311;51.386;0.016;2023-04-06T00:23:46;12.40;99.90
25360;DHT22;13311;51.386;0.016;2023-04-06T00:28:47;12.50;99.90
25360;DHT22;13311;51.386;0.016;2023-04-06T00:33:50;12.40;99.90
25360;DHT22;13311;51.386;0.016;2023-04-06T00:38:51;12.40;99.90
25360;DHT22;13311;51.386;0.016;2023-04-06T00:43:53;12.40;99.90
25360;DHT22;13311;51.386;0.016;2023-04-06T00:48:54;12.40;99.90
25360;DHT22;13311;51.386;0.016;2023-04-06T00:53:54;12.50;99.90
25360;DHT22;13311;51.386;0.016;2023-04-06T00:58:55;12.50;99.90
25360;DHT22;13311;51.386;0.016;2023-04-06T01:03:56;12.40;99.90
25360;DHT22;13311;51.386;0.016;2023-04-06T01:08:57;12.50;99.90
25360;DHT22;13311;51.386;0.016;2023-04-06T01:13:58;12.50;99.90
25360;DHT22;13311;51.386;0.016;2023-04-06T01:18:58;12.60;99.90
25360;DHT22;13311;51.386;0.016;2023-04-06T01:23:59;12.70;99.90
25360;DHT22;13311;51.386;0.016;2023-04-06T01:29:02;12.60;99.90
25360;DHT22;13311;51.386;0.016;2023-04-06T01:34:03;12.70;99.90
25360;DHT22;13311;51.386;0.016;2023-04-06T01:39:03;12.70;99.90
25360;DHT22;13311;51.386;0.016;2023-04-06T01:44:04;12.60;99.90
25360;DHT22;13311;51.386;0.016;2023-04-06T01:49:05;12.70;99.90
25360;DHT22;13311;51.386;0.016;2023-04-06T01:54:06;12.70;99.90
25360;DHT22;13311;51.386;0.016;2023-04-06T01:59:07;12.70;99.90
25360;DHT22;13311;51.386;0.016;2023-04-06T02:04:08;12.70;99.90
25360;DHT22;13311;51.386;0.016;2023-04-06T02:09:08;12.70;99.90
25360;DHT22;13311;51.386;0.016;2023-04-06T02:14:09;12.70;99.90
25360;DHT22;13311;51.386;0.016;2023-04-06T02:19:10;12.90;99.90
25360;DHT22;13311;51.386;0.016;2023-04-06T02:24:11;13.10;99.60
25360;DHT22;13311;51.386;0.016;2023-04-06T02:29:11;13.00;99.90
25360;DHT22;13311;51.386;0.016;2023-04-06T02:34:12;13.00;99.80
25360;DHT22;13311;51.386;0.016;2023-04-06T02:39:19;13.10;99.90
25360;DHT22;13311;51.386;0.016;2023-04-06T02:44:19;13.10;99.90
25360;DHT22;13311;51.386;0.016;2023-04-06T02:49:21;13.00;99.90
25360;DHT22;13311;51.386;0.016;2023-04-06T02:54:22;13.00;99.90
25360;DHT22;13311;51.386;0.016;2023-04-06T02:59:23;12.90;99.90
25360;DHT22;13311;51.386;0.016;2023-04-06T03:04:23;13.00;99.90
25360;DHT22;13311;51.386;0.016;2023-04-06T03:09:25;13.00;99.90
25360;DHT22;13311;51.386;0.016;2023-04-06T03:14:27;12.90;99.90
25360;DHT22;13311;51.386;0.016;2023-04-06T03:19:28;12.90;99.90
25360;DHT22;13311;51.386;0.016;2023-04-06T03:24:29;12.80;99.90
25360;DHT22;13311;51.386;0.016;2023-04-06T03:29:30;12.80;99.90
25360;DHT22;13311;51.386;0.016;2023-04-06T03:34:31;12.80;99.90
25360;DHT22;13311;51.386;0.016;2023-04-06T03:39:32;12.70;99.90
25360;DHT22;13311;51.386;0.016;2023-04-06T03:44:33;12.80;99.90
25360;DHT22;13311;51.386;0.016;2023-04-06T03:49:33;12.90;99.90
25360;DHT22;13311;51.386;0.016;2023-04-06T03:54:34;12.90;99.90
25360;DHT22;13311;51.386;0.016;2023-04-06T03:59:35;12.80;99.90
25360;DHT22;13311;51.386;0.016;2023-04-06T04:04:36;12.80;99.90
25360;DHT22;13311;51.386;0.016;2023-04-06T04:09:37;12.80;99.90
25360;DHT22;13311;51.386;0.016;2023-04-06T04:14:37;13.00;99.90
25360;DHT22;13311;51.386;0.016;2023-04-06T04:19:38;13.00;99.90
25360;DHT22;13311;51.386;0.016;2023-04-06T04:24:39;13.10;99.90
25360;DHT22;13311;51.386;0.016;2023-04-06T04:29:39;13.10;99.90
25360;DHT22;13311;51.386;0.016;2023-04-06T04:34:40;13.00;99.90
25360;DHT22;13311;51.386;0.016;2023-04-06T04:39:41;13.00;99.90
25360;DHT22;13311;51.386;0.016;2023-04-06T04:44:42;12.90;99.90
25360;DHT22;13311;51.386;0.016;2023-04-06T04:49:42;12.80;99.90
25360;DHT22;13311;51.386;0.016;2023-04-06T04:54:43;12.80;99.90
25360;DHT22;13311;51.386;0.016;2023-04-06T04:59:44;12.90;99.90
25360;DHT22;13311;51.386;0.016;2023-04-06T05:04:45;13.00;99.90
25360;DHT22;13311;51.386;0.016;2023-04-06T05:09:46;13.10;99.90
25360;DHT22;13311;51.386;0.016;2023-04-06T05:14:46;13.10;99.90
25360;DHT22;13311;51.386;0.016;2023-04-06T05:19:48;13.00;99.90
25360;DHT22;13311;51.386;0.016;2023-04-06T05:24:49;13.10;99.90
25360;DHT22;13311;51.386;0.016;2023-04-06T05:29:49;13.10;99.90
25360;DHT22;13311;51.386;0.016;2023-04-06T05:34:50;13.10;99.90
25360;DHT22;13311;51.386;0.016;2023-04-06T05:39:51;13.10;99.90
25360;DHT22;13311;51.386;0.016;2023-04-06T05:44:52;13.10;99.90
25360;DHT22;13311;51.386;0.016;2023-04-06T05:49:53;13.10;99.90
25360;DHT22;13311;51.386;0.016;2023-04-06T05:54:54;13.20;99.90
25360;DHT22;13311;51.386;0.016;2023-04-06T05:59:54;13.20;99.90
25360;DHT22;13311;51.386;0.016;2023-04-06T06:04:55;13.20;99.90
25360;DHT22;13311;51.386;0.016;2023-04-06T06:09:57;13.20;99.90
25360;DHT22;13311;51.386;0.016;2023-04-06T06:14:58;13.20;99.90
25360;DHT22;13311;51.386;0.016;2023-04-06T06:19:59;13.20;99.90
25360;DHT22;13311;51.386;0.016;2023-04-06T06:25:00;13.30;99.90
25360;DHT22;13311;51.386;0.016;2023-04-06T06:30:01;13.30;99.90
25360;DHT22;13311;51.386;0.016;2023-04-06T06:35:02;13.40;99.90
25360;DHT22;13311;51.386;0.016;2023-04-06T06:40:04;13.50;99.90
25360;DHT22;13311;51.386;0.016;2023-04-06T06:45:07;13.60;99.90
25360;DHT22;13311;51.386;0.016;2023-04-06T06:50:09;13.60;99.90
25360;DHT22;13311;51.386;0.016;2023-04-06T06:55:10;13.60;99.90
25360;DHT22;13311;51.386;0.016;2023-04-06T07:00:11;13.80;99.90
25360;DHT22;13311;51.386;0.016;2023-04-06T07:05:15;14.00;99.90
25360;DHT22;13311;51.386;0.016;2023-04-06T07:10:16;14.00;99.90
25360;DHT22;13311;51.386;0.016;2023-04-06T07:15:17;14.00;99.90
25360;DHT22;13311;51.386;0.016;2023-04-06T07:20:18;14.00;99.90
25360;DHT22;13311;51.386;0.016;2023-04-06T07:25:19;14.00;99.90
25360;DHT22;13311;51.386;0.016;2023-04-06T07:30:19;14.40;99.90
25360;DHT22;13311;51.386;0.016;2023-04-06T07:35:23;14.90;99.90
25360;DHT22;13311;51.386;0.016;2023-04-06T07:40:24;15.30;99.90
25360;DHT22;13311;51.386;0.016;2023-04-06T07:45:26;15.60;99.80
25360;DHT22;13311;51.386;0.016;2023-04-06T07:50:27;15.60;98.60
25360;DHT22;13311;51.386;0.016;2023-04-06T07:55:28;15.60;97.60
25360;DHT22;13311;51.386;0.016;2023-04-06T08:00:29;15.50;97.40
25360;DHT22;13311;51.386;0.016;2023-04-06T08:05:30;15.50;96.50
25360;DHT22;13311;51.386;0.016;2023-04-06T08:10:31;15.40;96.90
25360;DHT22;13311;51.386;0.016;2023-04-06T08:15:31;15.30;97.60
25360;DHT22;13311;51.386;0.016;2023-04-06T08:20:32;15.20;97.00
25360;DHT22;13311;51.386;0.016;2023-04-06T08:25:35;15.20;96.60
25360;DHT22;13311;51.386;0.016;2023-04-06T08:30:39;15.20;96.90
25360;DHT22;13311;51.386;0.016;2023-04-06T08:35:43;15.20;96.70
25360;DHT22;13311;51.386;0.016;2023-04-06T08:40:44;15.20;96.40
25360;DHT22;13311;51.386;0.016;2023-04-06T08:45:44;15.30;96.60
25360;DHT22;13311;51.386;0.016;2023-04-06T08:50:46;15.30;97.00
25360;DHT22;13311;51.386;0.016;2023-04-06T08:55:47;15.40;96.20
25360;DHT22;13311;51.386;0.016;2023-04-06T09:00:48;15.50;96.80
25360;DHT22;13311;51.386;0.016;2023-04-06T09:05:50;15.70;96.10
25360;DHT22;13311;51.386;0.016;2023-04-06T09:10:51;15.80;97.10
25360;DHT22;13311;51.386;0.016;2023-04-06T09:16:02;16.10;96.60
25360;DHT22;13311;51.386;0.016;2023-04-06T09:21:06;16.20;95.30
25360;DHT22;13311;51.386;0.016;2023-04-06T09:26:13;16.30;95.90
25360;DHT22;13311;51.386;0.016;2023-04-06T09:31:26;16.40;94.90
25360;DHT22;13311;51.386;0.016;2023-04-06T09:36:32;16.40;94.50
25360;DHT22;13311;51.386;0.016;2023-04-06T09:41:35;16.20;94.70
25360;DHT22;13311;51.386;0.016;2023-04-06T09:46:38;16.30;95.10
25360;DHT22;13311;51.386;0.016;2023-04-06T09:51:44;16.30;94.50
25360;DHT22;13311;51.386;0.016;2023-04-06T09:57:15;16.20;94.50
25360;DHT22;13311;51.386;0.016;2023-04-06T10:08:09;16.20;94.30
25360;DHT22;13311;51.386;0.016;2023-04-06T10:13:11;16.10;94.70
25360;DHT22;13311;51.386;0.016;2023-04-06T10:18:12;16.20;94.60
25360;DHT22;13311;51.386;0.016;2023-04-06T10:23:19;16.30;94.90
25360;DHT22;13311;51.386;0.016;2023-04-06T10:28:29;16.40;94.00
25360;DHT22;13311;51.386;0.016;2023-04-06T10:33:36;16.40;94.50
25360;DHT22;13311;51.386;0.016;2023-04-06T10:38:38;16.50;94.50
25360;DHT22;13311;51.386;0.016;2023-04-06T10:43:40;16.60;93.70
25360;DHT22;13311;51.386;0.016;2023-04-06T10:48:45;16.80;94.20
25360;DHT22;13311;51.386;0.016;2023-04-06T10:53:47;17.00;93.50
25360;DHT22;13311;51.386;0.016;2023-04-06T10:58:51;17.10;92.90
25360;DHT22;13311;51.386;0.016;2023-04-06T11:03:54;17.10;92.90
25360;DHT22;13311;51.386;0.016;2023-04-06T11:08:58;17.10;92.90
25360;DHT22;13311;51.386;0.016;2023-04-06T11:13:59;17.10;92.60
25360;DHT22;13311;51.386;0.016;2023-04-06T11:19:03;17.20;92.50
25360;DHT22;13311;51.386;0.016;2023-04-06T11:24:12;17.30;93.00
25360;DHT22;13311;51.386;0.016;2023-04-06T11:29:20;17.60;93.10
25360;DHT22;13311;51.386;0.016;2023-04-06T11:34:23;17.70;92.10
25360;DHT22;13311;51.386;0.016;2023-04-06T11:39:26;17.90;92.00
25360;DHT22;13311;51.386;0.016;2023-04-06T11:44:37;18.00;92.30
25360;DHT22;13311;51.386;0.016;2023-04-06T11:49:42;18.20;92.10
25360;DHT22;13311;51.386;0.016;2023-04-06T11:54:46;18.40;91.60
25360;DHT22;13311;51.386;0.016;2023-04-06T11:59:49;18.50;90.70
25360;DHT22;13311;51.386;0.016;2023-04-06T12:04:50;18.40;90.70
25360;DHT22;13311;51.386;0.016;2023-04-06T12:09:50;18.40;90.90
25360;DHT22;13311;51.386;0.016;2023-04-06T12:14:51;18.30;91.40
25360;DHT22;13311;51.386;0.016;2023-04-06T12:19:52;18.20;90.90
25360;DHT22;13311;51.386;0.016;2023-04-06T12:24:52;18.30;90.90
25360;DHT22;13311;51.386;0.016;2023-04-06T12:29:53;18.40;90.80
25360;DHT22;13311;51.386;0.016;2023-04-06T12:34:54;18.40;90.90
25360;DHT22;13311;51.386;0.016;2023-04-06T12:39:55;18.50;90.50
25360;DHT22;13311;51.386;0.016;2023-04-06T12:44:56;18.60;90.00
25360;DHT22;13311;51.386;0.016;2023-04-06T12:49:57;18.50;90.00
25360;DHT22;13311;51.386;0.016;2023-04-06T12:54:57;18.60;88.80
25360;DHT22;13311;51.386;0.016;2023-04-06T13:00:00;18.90;88.70
25360;DHT22;13311;51.386;0.016;2023-04-06T13:05:01;19.00;89.50
25360;DHT22;13311;51.386;0.016;2023-04-06T13:10:02;19.00;87.20
25360;DHT22;13311;51.386;0.016;2023-04-06T13:15:03;19.10;86.30
25360;DHT22;13311;51.386;0.016;2023-04-06T13:20:05;18.90;84.70
25360;DHT22;13311;51.386;0.016;2023-04-06T13:25:06;19.00;88.10
25360;DHT22;13311;51.386;0.016;2023-04-06T13:30:08;18.90;85.90
25360;DHT22;13311;51.386;0.016;2023-04-06T13:35:09;18.90;85.00
25360;DHT22;13311;51.386;0.016;2023-04-06T13:40:10;18.80;85.90
25360;DHT22;13311;51.386;0.016;2023-04-06T13:45:11;19.00;86.80
25360;DHT22;13311;51.386;0.016;2023-04-06T13:50:12;18.90;86.20
25360;DHT22;13311;51.386;0.016;2023-04-06T13:55:13;18.90;84.70
25360;DHT22;13311;51.386;0.016;2023-04-06T14:00:14;18.80;83.00
25360;DHT22;13311;51.386;0.016;2023-04-06T14:05:15;18.80;83.90
25360;DHT22;13311;51.386;0.016;2023-04-06T14:10:16;18.70;83.90
25360;DHT22;13311;51.386;0.016;2023-04-06T14:15:17;18.60;85.20
25360;DHT22;13311;51.386;0.016;2023-04-06T14:20:18;18.60;84.50
25360;DHT22;13311;51.386;0.016;2023-04-06T14:25:19;18.40;85.40
25360;DHT22;13311;51.386;0.016;2023-04-06T14:30:20;18.30;87.80
25360;DHT22;13311;51.386;0.016;2023-04-06T14:35:21;18.20;87.80
25360;DHT22;13311;51.386;0.016;2023-04-06T14:40:21;18.00;87.90
25360;DHT22;13311;51.386;0.016;2023-04-06T14:45:22;17.80;89.20
25360;DHT22;13311;51.386;0.016;2023-04-06T14:50:23;17.80;90.20
25360;DHT22;13311;51.386;0.016;2023-04-06T14:55:23;17.60;90.30
25360;DHT22;13311;51.386;0.016;2023-04-06T15:00:24;17.20;90.40
25360;DHT22;13311;51.386;0.016;2023-04-06T15:05:25;16.80;91.10
25360;DHT22;13311;51.386;0.016;2023-04-06T15:10:26;16.30;91.40
25360;DHT22;13311;51.386;0.016;2023-04-06T15:15:27;15.90;92.00
25360;DHT22;13311;51.386;0.016;2023-04-06T15:20:28;15.70;92.60
25360;DHT22;13311;51.386;0.016;2023-04-06T15:25:30;15.40;93.10
25360;DHT22;13311;51.386;0.016;2023-04-06T15:30:31;15.10;93.80
25360;DHT22;13311;51.386;0.016;2023-04-06T15:35:32;15.10;94.50
25360;DHT22;13311;51.386;0.016;2023-04-06T15:40:46;15.20;95.00
25360;DHT22;13311;51.386;0.016;2023-04-06T15:45:48;15.30;95.20
25360;DHT22;13311;51.386;0.016;2023-04-06T15:50:49;15.50;95.40
25360;DHT22;13311;51.386;0.016;2023-04-06T15:55:50;15.60;95.40
25360;DHT22;13311;51.386;0.016;2023-04-06T16:00:50;15.70;95.10
25360;DHT22;13311;51.386;0.016;2023-04-06T16:05:52;15.80;94.50
25360;DHT22;13311;51.386;0.016;2023-04-06T16:10:53;15.90;94.60
25360;DHT22;13311;51.386;0.016;2023-04-06T16:15:54;15.90;95.10
25360;DHT22;13311;51.386;0.016;2023-04-06T16:20:54;16.00;95.40
25360;DHT22;13311;51.386;0.016;2023-04-06T16:25:55;16.20;94.40
25360;DHT22;13311;51.386;0.016;2023-04-06T16:31:00;16.30;94.40
25360;DHT22;13311;51.386;0.016;2023-04-06T16:36:00;16.30;93.70
25360;DHT22;13311;51.386;0.016;2023-04-06T16:41:01;16.20;93.00
25360;DHT22;13311;51.386;0.016;2023-04-06T16:46:02;16.10;92.80
25360;DHT22;13311;51.386;0.016;2023-04-06T16:51:06;16.10;92.60
25360;DHT22;13311;51.386;0.016;2023-04-06T16:56:07;16.10;92.20
25360;DHT22;13311;51.386;0.016;2023-04-06T17:01:20;16.10;91.60
25360;DHT22;13311;51.386;0.016;2023-04-06T17:06:22;16.00;91.40
25360;DHT22;13311;51.386;0.016;2023-04-06T17:11:23;16.00;92.00
25360;DHT22;13311;51.386;0.016;2023-04-06T17:16:23;15.90;92.10
25360;DHT22;13311;51.386;0.016;2023-04-06T17:21:24;15.50;92.70
25360;DHT22;13311;51.386;0.016;2023-04-06T17:26:25;15.10;92.90
25360;DHT22;13311;51.386;0.016;2023-04-06T17:31:26;14.90;93.50
25360;DHT22;13311;51.386;0.016;2023-04-06T17:36:27;14.60;93.80
25360;DHT22;13311;51.386;0.016;2023-04-06T17:41:28;14.30;94.70
25360;DHT22;13311;51.386;0.016;2023-04-06T17:46:31;14.20;95.20
25360;DHT22;13311;51.386;0.016;2023-04-06T17:51:32;14.20;95.70
25360;DHT22;13311;51.386;0.016;2023-04-06T17:56:33;14.10;95.70
25360;DHT22;13311;51.386;0.016;2023-04-06T18:01:34;14.10;95.90
25360;DHT22;13311;51.386;0.016;2023-04-06T18:06:35;14.10;96.00
25360;DHT22;13311;51.386;0.016;2023-04-06T18:11:36;14.20;95.90
25360;DHT22;13311;51.386;0.016;2023-04-06T18:16:37;14.10;96.20
25360;DHT22;13311;51.386;0.016;2023-04-06T18:21:38;14.10;96.10
25360;DHT22;13311;51.386;0.016;2023-04-06T18:26:39;14.10;96.20
25360;DHT22;13311;51.386;0.016;2023-04-06T18:31:39;14.10;96.50
25360;DHT22;13311;51.386;0.016;2023-04-06T18:36:40;14.10;96.40
25360;DHT22;13311;51.386;0.016;2023-04-06T18:41:41;14.00;96.20
25360;DHT22;13311;51.386;0.016;2023-04-06T18:46:45;14.00;96.20
25360;DHT22;13311;51.386;0.016;2023-04-06T18:51:46;13.90;96.40
25360;DHT22;13311;51.386;0.016;2023-04-06T18:56:47;13.90;96.40
25360;DHT22;13311;51.386;0.016;2023-04-06T19:01:48;13.70;96.10
25360;DHT22;13311;51.386;0.016;2023-04-06T19:06:53;13.60;96.30
25360;DHT22;13311;51.386;0.016;2023-04-06T19:11:55;13.60;96.20
25360;DHT22;13311;51.386;0.016;2023-04-06T19:16:56;13.50;96.30
25360;DHT22;13311;51.386;0.016;2023-04-06T19:21:57;13.50;96.30
25360;DHT22;13311;51.386;0.016;2023-04-06T19:26:59;13.40;96.40
25360;DHT22;13311;51.386;0.016;2023-04-06T19:32:01;13.30;96.60
25360;DHT22;13311;51.386;0.016;2023-04-06T19:37:03;13.30;96.60
25360;DHT22;13311;51.386;0.016;2023-04-06T19:42:04;13.30;96.60
25360;DHT22;13311;51.386;0.016;2023-04-06T19:47:04;13.20;96.50
25360;DHT22;13311;51.386;0.016;2023-04-06T19:52:06;13.10;96.40
25360;DHT22;13311;51.386;0.016;2023-04-06T19:57:09;13.10;96.30
25360;DHT22;13311;51.386;0.016;2023-04-06T20:02:10;13.00;96.80
25360;DHT22;13311;51.386;0.016;2023-04-06T20:07:10;12.90;96.50
25360;DHT22;13311;51.386;0.016;2023-04-06T20:12:11;12.80;96.50
25360;DHT22;13311;51.386;0.016;2023-04-06T20:17:12;12.80;96.50
25360;DHT22;13311;51.386;0.016;2023-04-06T20:22:13;12.70;96.60
25360;DHT22;13311;51.386;0.016;2023-04-06T20:27:14;12.70;96.60
25360;DHT22;13311;51.386;0.016;2023-04-06T20:32:15;12.60;96.50
25360;DHT22;13311;51.386;0.016;2023-04-06T20:37:19;12.50;96.70
25360;DHT22;13311;51.386;0.016;2023-04-06T20:42:20;12.40;96.70
25360;DHT22;13311;51.386;0.016;2023-04-06T20:47:23;12.30;97.00
25360;DHT22;13311;51.386;0.016;2023-04-06T20:52:23;12.30;96.90
25360;DHT22;13311;51.386;0.016;2023-04-06T20:57:24;12.20;97.00
25360;DHT22;13311;51.386;0.016;2023-04-06T21:02:25;12.10;96.90
25360;DHT22;13311;51.386;0.016;2023-04-06T21:07:26;12.00;97.10
25360;DHT22;13311;51.386;0.016;2023-04-06T21:12:26;12.00;97.20
25360;DHT22;13311;51.386;0.016;2023-04-06T21:17:27;12.00;97.30
25360;DHT22;13311;51.386;0.016;2023-04-06T21:22:28;11.90;97.50
25360;DHT22;13311;51.386;0.016;2023-04-06T21:27:29;11.90;97.30
25360;DHT22;13311;51.386;0.016;2023-04-06T21:32:30;11.90;97.20
25360;DHT22;13311;51.386;0.016;2023-04-06T21:37:31;11.80;97.10
25360;DHT22;13311;51.386;0.016;2023-04-06T21:42:31;11.80;97.20
25360;DHT22;13311;51.386;0.016;2023-04-06T21:47:33;11.60;97.20
25360;DHT22;13311;51.386;0.016;2023-04-06T21:52:34;11.50;97.30
25360;DHT22;13311;51.386;0.016;2023-04-06T21:57:35;11.50;97.20
25360;DHT22;13311;51.386;0.016;2023-04-06T22:02:36;11.50;97.50
25360;DHT22;13311;51.386;0.016;2023-04-06T22:07:38;11.40;97.10
25360;DHT22;13311;51.386;0.016;2023-04-06T22:12:39;11.40;97.10
25360;DHT22;13311;51.386;0.016;2023-04-06T22:17:39;11.30;97.10
25360;DHT22;13311;51.386;0.016;2023-04-06T22:22:40;11.20;97.00
25360;DHT22;13311;51.386;0.016;2023-04-06T22:27:41;11.10;97.00
25360;DHT22;13311;51.386;0.016;2023-04-06T22:32:42;11.10;97.20
25360;DHT22;13311;51.386;0.016;2023-04-06T22:37:43;11.00;97.10
25360;DHT22;13311;51.386;0.016;2023-04-06T22:42:43;11.00;96.80
25360;DHT22;13311;51.386;0.016;2023-04-06T22:47:44;10.90;96.90
25360;DHT22;13311;51.386;0.016;2023-04-06T22:52:45;10.90;96.80
25360;DHT22;13311;51.386;0.016;2023-04-06T22:57:46;10.90;96.70
25360;DHT22;13311;51.386;0.016;2023-04-06T23:02:46;10.80;96.60
25360;DHT22;13311;51.386;0.016;2023-04-06T23:07:47;10.80;96.70
25360;DHT22;13311;51.386;0.016;2023-04-06T23:12:48;10.70;96.40
25360;DHT22;13311;51.386;0.016;2023-04-06T23:17:48;10.70;96.50
25360;DHT22;13311;51.386;0.016;2023-04-06T23:22:49;10.60;96.50
25360;DHT22;13311;51.386;0.016;2023-04-06T23:27:50;10.60;96.40
25360;DHT22;13311;51.386;0.016;2023-04-06T23:32:51;10.50;96.10
25360;DHT22;13311;51.386;0.016;2023-04-06T23:37:52;10.50;96.00
25360;DHT22;13311;51.386;0.016;2023-04-06T23:42:52;10.40;96.20
25360;DHT22;13311;51.386;0.016;2023-04-06T23:47:53;10.40;96.20
25360;DHT22;13311;51.386;0.016;2023-04-06T23:52:54;10.20;96.20
25360;DHT22;13311;51.386;0.016;2023-04-06T23:57:55;10.20;96.20
